Time;durP1;ratioP1;P1;durP2;ratioP2;P2;SDS_P1;SDS_P2;PMS_P1;PMS_P2;Temp;Humidity;BMP_temperature;BMP_pressure;BME280_temperature;BME280_humidity;BME280_pressure;Samples;Min_cycle;Max_cycle;Signal;HPM_P1;HPM_P2
2023/07/18 00:01:39;;;;;;;6.13;2.50;;;16.30;99.90;15.70;100331;;;;580425;242;24058;-79
2023/07/18 00:04:07;;;;;;;3.07;2.20;;;16.30;99.90;15.70;100334;;;;580816;245;24058;-80
2023/07/18 00:06:34;;;;;;;3.90;2.20;;;16.20;99.90;15.60;100326;;;;580243;245;24041;-81
2023/07/18 00:09:04;;;;;;;4.03;2.37;;;16.20;99.90;15.50;100325;;;;580918;245;24023;-80
2023/07/18 00:11:30;;;;;;;4.80;2.83;;;16.10;99.90;15.50;100335;;;;581115;245;24074;-80
2023/07/18 00:13:58;;;;;;;6.50;3.07;;;16.00;99.90;15.40;100335;;;;580655;245;24132;-78
2023/07/18 00:16:26;;;;;;;3.87;2.47;;;16.00;99.90;15.40;100330;;;;582056;244;24102;-79
2023/07/18 00:18:54;;;;;;;5.90;3.37;;;15.90;99.90;15.30;100331;;;;581385;244;24032;-78
2023/07/18 00:21:22;;;;;;;2.93;2.53;;;15.80;99.90;15.20;100333;;;;580782;244;24066;-78
2023/07/18 00:23:50;;;;;;;3.03;2.50;;;15.80;99.90;15.10;100326;;;;581391;244;24098;-78
2023/07/18 00:26:18;;;;;;;3.43;2.63;;;15.70;99.90;15.10;100325;;;;581192;244;24080;-78
2023/07/18 00:28:47;;;;;;;5.50;2.43;;;15.60;99.90;15.00;100325;;;;581413;244;24057;-79
2023/07/18 00:31:14;;;;;;;3.17;2.60;;;15.60;99.90;14.90;100323;;;;580585;240;24069;-79
2023/07/18 00:33:42;;;;;;;3.80;2.63;;;15.40;99.90;14.80;100314;;;;580598;245;24061;-79
2023/07/18 00:36:14;;;;;;;3.10;2.43;;;15.40;99.90;14.80;100314;;;;580139;245;24070;-79
2023/07/18 00:38:39;;;;;;;13.10;3.27;;;15.30;99.90;14.70;100316;;;;579869;245;24041;-80
2023/07/18 00:41:08;;;;;;;2.70;2.50;;;15.30;99.90;14.60;100322;;;;580241;245;24121;-80
2023/07/18 00:43:35;;;;;;;5.60;3.20;;;15.20;99.90;14.60;100334;;;;580001;245;24087;-80
2023/07/18 00:46:03;;;;;;;3.90;2.60;;;15.20;99.90;14.60;100335;;;;580330;245;24060;-79
2023/07/18 00:48:34;;;;;;;7.30;2.80;;;15.10;99.90;14.50;100338;;;;580553;245;24071;-80
2023/07/18 00:51:02;;;;;;;3.27;2.90;;;15.10;99.90;14.50;100326;;;;576086;245;24078;-76
2023/07/18 00:53:26;;;;;;;3.47;2.70;;;15.10;99.90;14.50;100326;;;;580797;245;24085;-77
2023/07/18 00:55:57;;;;;;;6.30;3.37;;;15.00;99.90;14.40;100332;;;;575130;245;45931;-81
2023/07/18 00:58:22;;;;;;;7.03;3.07;;;15.00;99.90;14.40;100334;;;;574413;245;24074;-79
2023/07/18 01:00:51;;;;;;;7.33;3.07;;;14.90;99.90;14.40;100336;;;;579925;245;24102;-77
2023/07/18 01:03:22;;;;;;;8.77;2.60;;;14.90;99.90;14.40;100339;;;;581205;245;24254;-80
2023/07/18 01:05:47;;;;;;;5.50;2.43;;;15.00;99.90;14.50;100338;;;;574894;245;24078;-77
2023/07/18 01:08:15;;;;;;;6.00;3.03;;;15.00;99.90;14.50;100343;;;;580987;245;24083;-77
2023/07/18 01:10:42;;;;;;;6.30;3.70;;;15.00;99.90;14.50;100341;;;;581310;245;24038;-78
2023/07/18 01:13:13;;;;;;;6.10;3.00;;;15.00;99.90;14.50;100348;;;;580891;245;24049;-78
2023/07/18 01:15:38;;;;;;;3.57;2.70;;;15.00;99.90;14.50;100349;;;;580511;245;24105;-78
2023/07/18 01:18:08;;;;;;;3.60;2.67;;;15.00;99.90;14.50;100346;;;;580879;245;24044;-77
2023/07/18 01:20:36;;;;;;;4.00;3.43;;;15.10;99.90;14.60;100351;;;;580381;240;24099;-79
2023/07/18 01:23:06;;;;;;;9.63;2.73;;;15.10;99.90;14.60;100363;;;;580250;245;24076;-80
2023/07/18 01:25:36;;;;;;;3.10;2.83;;;15.10;99.90;14.60;100365;;;;580164;245;24083;-78
2023/07/18 01:28:06;;;;;;;3.17;2.50;;;15.10;99.90;14.60;100362;;;;581670;244;24041;-79
2023/07/18 01:30:35;;;;;;;7.17;2.70;;;15.10;99.90;14.60;100354;;;;581140;244;24253;-78
2023/07/18 01:33:01;;;;;;;2.87;2.60;;;15.10;99.90;14.60;100366;;;;589393;243;24141;-78
2023/07/18 01:35:28;;;;;;;3.30;2.77;;;15.10;99.90;14.60;100367;;;;580433;244;24085;-79
2023/07/18 01:37:56;;;;;;;8.23;3.03;;;15.10;99.90;14.70;100381;;;;580285;244;24029;-79
2023/07/18 01:40:24;;;;;;;2.90;2.47;;;15.20;99.90;14.70;100387;;;;580420;244;24070;-80
2023/07/18 01:42:53;;;;;;;3.97;2.70;;;15.30;99.90;14.80;100410;;;;580349;244;24042;-80
2023/07/18 01:45:24;;;;;;;5.80;2.73;;;15.40;99.90;14.80;100425;;;;580330;245;24025;-79
2023/07/18 01:47:50;;;;;;;4.97;2.13;;;15.40;99.90;14.90;100439;;;;579776;245;24121;-78
2023/07/18 01:50:21;;;;;;;4.10;1.97;;;15.40;99.90;14.80;100432;;;;580052;245;24035;-79
2023/07/18 01:52:50;;;;;;;1.70;1.60;;;15.30;99.90;14.50;100434;;;;579923;245;24041;-79
2023/07/18 01:55:14;;;;;;;3.53;1.90;;;15.00;99.90;14.40;100438;;;;579851;245;24037;-79
2023/07/18 01:57:42;;;;;;;2.37;1.40;;;14.90;99.90;14.20;100437;;;;580499;244;24036;-78
2023/07/18 02:00:12;;;;;;;1.37;1.27;;;14.70;99.90;14.00;100443;;;;586486;245;24063;-79
2023/07/18 02:02:40;;;;;;;1.40;1.30;;;14.60;99.90;13.90;100432;;;;580078;245;24039;-79
2023/07/18 02:05:11;;;;;;;2.93;1.40;;;14.40;99.90;13.70;100431;;;;579663;245;24087;-79
2023/07/18 02:07:36;;;;;;;2.57;1.00;;;14.30;99.90;13.60;100432;;;;579776;245;24053;-80
2023/07/18 02:10:04;;;;;;;1.83;1.20;;;14.10;99.90;13.50;100428;;;;579917;245;24053;-80
2023/07/18 02:12:32;;;;;;;2.20;1.40;;;14.00;99.90;13.50;100431;;;;579891;245;24054;-81
2023/07/18 02:15:00;;;;;;;1.27;1.27;;;13.90;99.90;13.40;100418;;;;579914;245;24153;-81
2023/07/18 02:17:28;;;;;;;2.40;1.30;;;13.90;99.90;13.40;100422;;;;588899;243;24041;-80
2023/07/18 02:19:56;;;;;;;2.00;1.10;;;13.80;99.90;13.30;100418;;;;579943;241;24041;-81
2023/07/18 02:22:29;;;;;;;4.00;1.17;;;13.70;99.90;13.20;100419;;;;579911;241;24075;-80
2023/07/18 02:24:54;;;;;;;3.03;1.00;;;13.70;99.90;13.20;100408;;;;579333;245;25169;-81
2023/07/18 02:27:22;;;;;;;1.40;1.30;;;13.70;99.90;13.20;100404;;;;579942;240;24045;-80
2023/07/18 02:29:49;;;;;;;1.57;1.47;;;13.70;99.90;13.10;100403;;;;580256;240;24045;-81
2023/07/18 02:32:21;;;;;;;3.23;1.43;;;13.60;99.90;13.10;100416;;;;575329;245;35272;-81
2023/07/18 02:34:51;;;;;;;2.30;1.52;;;13.50;99.90;13.00;100409;;;;583706;243;34966;-81
2023/07/18 02:37:16;;;;;;;4.80;1.47;;;13.50;99.90;12.90;100406;;;;579932;245;24085;-79
2023/07/18 02:39:44;;;;;;;1.10;1.00;;;13.50;99.90;12.80;100411;;;;581443;241;24120;-80
2023/07/18 02:42:12;;;;;;;0.70;0.70;;;13.40;99.90;12.70;100412;;;;580778;244;24030;-79
2023/07/18 02:44:40;;;;;;;2.33;1.40;;;13.30;99.90;12.70;100409;;;;580731;244;24058;-79
2023/07/18 02:47:08;;;;;;;1.73;1.00;;;13.20;99.90;12.60;100413;;;;580568;244;24074;-79
2023/07/18 02:49:35;;;;;;;1.57;1.30;;;13.10;99.90;12.50;100417;;;;580587;244;24061;-80
2023/07/18 02:52:03;;;;;;;2.57;1.73;;;13.10;99.90;12.50;100423;;;;575541;244;37799;-82
2023/07/18 02:54:32;;;;;;;1.27;1.10;;;13.00;99.90;12.40;100417;;;;580711;244;24050;-83
2023/07/18 02:57:01;;;;;;;1.27;1.23;;;13.00;99.90;12.40;100412;;;;580798;241;24069;-82
2023/07/18 02:59:29;;;;;;;2.37;1.17;;;13.00;99.90;12.40;100405;;;;580514;244;24043;-82
2023/07/18 03:01:59;;;;;;;3.27;1.43;;;12.90;99.90;12.40;100404;;;;580226;241;24074;-79
2023/07/18 03:04:27;;;;;;;1.63;1.43;;;12.90;99.90;12.40;100404;;;;579989;245;24058;-79
2023/07/18 03:06:56;;;;;;;2.97;1.37;;;12.90;99.90;12.30;100399;;;;579981;245;24101;-80
2023/07/18 03:09:28;;;;;;;2.37;1.80;;;12.90;99.90;12.30;100404;;;;580089;245;24071;-79
2023/07/18 03:11:54;;;;;;;2.23;1.50;;;12.90;99.90;12.30;100396;;;;579838;245;24091;-81
2023/07/18 03:14:22;;;;;;;2.50;1.57;;;12.90;99.90;12.30;100399;;;;580018;245;24074;-80
2023/07/18 03:16:49;;;;;;;1.30;1.30;;;12.90;99.90;12.30;100403;;;;579859;240;24057;-82
2023/07/18 03:19:17;;;;;;;3.90;1.67;;;12.90;99.90;12.30;100398;;;;580079;241;24042;-82
2023/07/18 03:21:45;;;;;;;1.90;1.70;;;12.90;99.90;12.30;100411;;;;579937;245;24081;-83
2023/07/18 03:24:13;;;;;;;3.57;1.93;;;12.90;99.90;12.30;100403;;;;589117;243;24064;-82
2023/07/18 03:26:41;;;;;;;3.73;1.60;;;12.90;99.90;12.30;100404;;;;579889;241;25118;-82
2023/07/18 03:29:09;;;;;;;1.37;1.07;;;12.90;99.90;12.30;100409;;;;579676;245;24143;-80
2023/07/18 03:31:39;;;;;;;4.33;1.80;;;12.90;99.90;12.30;100411;;;;580115;245;24035;-80
2023/07/18 03:34:05;;;;;;;5.73;1.77;;;12.90;99.90;12.40;100411;;;;580120;245;24033;-80
2023/07/18 03:36:36;;;;;;;1.80;1.70;;;12.90;99.90;12.90;100416;;;;579993;245;24078;-81
2023/07/18 03:39:00;;;;;;;4.00;1.70;;;13.30;99.90;13.70;100420;;;;579530;244;24083;-80
2023/07/18 03:41:29;;;;;;;2.33;1.63;;;14.80;99.90;14.60;100425;;;;579809;245;24093;-81
2023/07/18 03:43:57;;;;;;;3.07;1.33;;;14.80;99.90;15.50;100425;;;;579904;245;24047;-80
2023/07/18 03:46:25;;;;;;;2.93;1.40;;;15.80;99.90;16.50;100443;;;;579798;245;24157;-79
2023/07/18 03:48:53;;;;;;;1.93;1.30;;;16.80;99.90;17.40;100438;;;;580098;245;24095;-80
2023/07/18 03:51:21;;;;;;;1.40;1.30;;;17.80;99.90;18.20;100449;;;;581399;240;24103;-80
2023/07/18 03:53:50;;;;;;;1.77;1.37;;;18.70;99.90;18.70;100446;;;;581097;244;23086;-80
2023/07/18 03:56:17;;;;;;;2.20;1.27;;;19.30;99.90;18.60;100449;;;;580718;244;23058;-81
2023/07/18 03:58:45;;;;;;;2.03;1.27;;;19.30;99.90;19.00;100449;;;;580551;241;24073;-83
2023/07/18 04:01:16;;;;;;;2.43;1.03;;;20.20;99.90;19.60;100452;;;;580676;244;23083;-80
2023/07/18 04:03:42;;;;;;;2.40;0.90;;;20.70;99.90;20.20;100444;;;;584175;244;24036;-79
2023/07/18 04:06:10;;;;;;;1.83;1.07;;;20.70;99.90;20.70;100442;;;;580596;244;24038;-81
2023/07/18 04:08:38;;;;;;;1.70;1.30;;;21.30;99.90;21.40;100449;;;;580109;245;24077;-80
2023/07/18 04:11:06;;;;;;;1.77;1.03;;;21.90;99.90;21.90;100441;;;;579947;245;24073;-80
2023/07/18 04:13:34;;;;;;;2.40;1.40;;;22.50;99.90;22.50;100442;;;;580041;241;24024;-81
2023/07/18 04:16:01;;;;;;;2.60;0.90;;;23.10;99.90;23.10;100434;;;;579984;245;24062;-80
2023/07/18 04:18:29;;;;;;;1.37;1.25;;;23.80;99.90;23.90;100436;;;;575121;245;34878;-82
2023/07/18 04:21:04;;;;;;;1.33;1.23;;;24.50;99.90;24.50;100432;;;;580054;245;23039;-80
2023/07/18 04:23:31;;;;;;;1.10;1.10;;;25.10;99.90;25.00;100438;;;;580210;245;23060;-79
2023/07/18 04:25:56;;;;;;;1.53;1.43;;;25.80;99.90;25.80;100441;;;;579552;245;23072;-80
2023/07/18 04:28:25;;;;;;;2.57;1.30;;;27.10;98.90;26.40;100451;;;;579519;245;24034;-80
2023/07/18 04:30:53;;;;;;;2.07;1.20;;;27.00;98.80;27.00;100451;;;;579909;245;23097;-79
2023/07/18 04:33:21;;;;;;;1.57;1.20;;;27.70;96.40;27.40;100451;;;;580202;241;23041;-80
2023/07/18 04:35:48;;;;;;;1.80;1.03;;;28.20;94.90;27.90;100462;;;;589202;243;23059;-80
2023/07/18 04:38:16;;;;;;;4.95;1.60;;;28.70;92.60;28.00;100462;;;;579810;245;23059;-80
2023/07/18 04:40:44;;;;;;;2.58;1.30;;;29.10;91.50;28.40;100466;;;;580167;245;23054;-80
2023/07/18 04:43:12;;;;;;;1.73;1.40;;;29.50;90.00;28.80;100471;;;;579845;241;23096;-81
2023/07/18 04:45:46;;;;;;;1.30;1.20;;;29.90;88.90;29.40;100467;;;;579758;241;23070;-81
2023/07/18 04:48:16;;;;;;;1.45;1.20;;;30.50;86.30;30.10;100465;;;;580118;245;23093;-79
2023/07/18 04:50:44;;;;;;;2.15;1.40;;;31.20;81.50;30.60;100473;;;;580955;245;23107;-80
2023/07/18 04:53:14;;;;;;;1.75;1.05;;;31.80;77.60;31.10;100474;;;;580987;245;23035;-80
2023/07/18 04:55:40;;;;;;;3.92;1.40;;;32.20;74.70;31.40;100482;;;;580410;245;23071;-81
2023/07/18 04:58:08;;;;;;;1.92;1.17;;;32.70;72.80;31.70;100484;;;;581517;244;23024;-80
2023/07/18 05:00:36;;;;;;;1.62;1.40;;;33.40;68.80;32.10;100487;;;;581330;242;23056;-81
2023/07/18 05:03:05;;;;;;;2.90;1.25;;;33.30;68.70;32.40;100483;;;;583412;240;23092;-80
2023/07/18 05:05:32;;;;;;;4.97;1.73;;;33.70;67.00;32.60;100499;;;;582925;240;23027;-81
2023/07/18 05:08:00;;;;;;;1.30;1.20;;;34.00;65.90;32.90;100501;;;;582353;244;23039;-79
2023/07/18 05:10:28;;;;;;;3.65;1.27;;;34.20;65.00;33.50;100499;;;;581972;244;23031;-79
2023/07/18 05:12:59;;;;;;;3.42;1.75;;;34.70;62.80;33.70;100493;;;;581419;244;23101;-82
2023/07/18 05:15:24;;;;;;;2.15;1.45;;;35.00;61.60;34.20;100504;;;;580374;244;23091;-81
2023/07/18 05:17:52;;;;;;;4.53;1.70;;;35.40;60.00;34.50;100505;;;;575489;244;34878;-82
2023/07/18 05:20:20;;;;;;;4.45;1.55;;;35.70;58.90;34.80;100502;;;;580473;245;23053;-82
2023/07/18 05:22:47;;;;;;;3.95;1.42;;;36.00;58.50;35.20;100495;;;;580338;245;24038;-81
2023/07/18 05:25:16;;;;;;;4.15;1.45;;;36.40;58.10;35.70;100493;;;;580086;245;23094;-81
2023/07/18 05:27:43;;;;;;;4.40;2.28;;;36.80;56.40;35.80;100484;;;;579924;243;23112;-81
2023/07/18 05:30:11;;;;;;;4.57;1.52;;;37.00;56.10;36.10;100488;;;;580125;245;23065;-82
2023/07/18 05:32:43;;;;;;;3.70;1.33;;;37.20;56.50;36.50;100490;;;;580080;245;23068;-81
2023/07/18 05:35:10;;;;;;;4.30;1.75;;;37.50;54.50;36.90;100501;;;;575184;240;34956;-81
2023/07/18 05:37:35;;;;;;;5.28;1.90;;;37.90;54.00;36.60;100507;;;;580133;245;23094;-80
2023/07/18 05:40:08;;;;;;;2.95;1.60;;;37.40;53.50;36.30;100515;;;;579925;245;23037;-82
2023/07/18 05:42:32;;;;;;;5.28;1.62;;;37.50;53.50;36.60;100523;;;;579688;245;23178;-81
2023/07/18 05:45:00;;;;;;;5.05;1.75;;;37.50;53.50;36.30;100526;;;;579641;245;23048;-80
2023/07/18 05:47:28;;;;;;;6.12;1.92;;;37.30;52.80;34.60;100526;;;;579860;245;23149;-81
2023/07/18 05:49:56;;;;;;;4.75;1.50;;;36.00;54.20;33.10;100522;;;;579745;245;23049;-80
2023/07/18 05:52:24;;;;;;;4.00;1.80;;;34.40;56.50;31.70;100525;;;;574869;245;34918;-80
2023/07/18 05:54:55;;;;;;;4.80;1.90;;;33.00;57.70;30.20;100529;;;;579844;245;23040;-81
2023/07/18 05:57:20;;;;;;;7.32;1.55;;;31.50;59.90;29.10;100526;;;;579854;241;23052;-80
2023/07/18 05:59:51;;;;;;;2.50;1.75;;;30.10;63.20;28.20;100527;;;;580259;245;23035;-81
2023/07/18 06:02:20;;;;;;;3.10;1.62;;;29.00;66.10;27.40;100535;;;;579787;245;24122;-81
2023/07/18 06:04:44;;;;;;;2.87;1.58;;;28.10;68.80;27.70;100525;;;;579956;245;26361;-80
2023/07/18 06:07:15;;;;;;;3.60;1.60;;;28.80;70.20;28.50;100534;;;;579847;245;23148;-81
2023/07/18 06:09:42;;;;;;;6.72;4.57;;;29.60;69.60;29.50;100536;;;;579846;245;23088;-82
2023/07/18 06:12:10;;;;;;;7.95;2.35;;;30.00;68.20;29.70;100534;;;;579779;241;23047;-82
2023/07/18 06:14:38;;;;;;;5.80;1.62;;;30.00;67.60;30.40;100534;;;;581330;244;24069;-81
2023/07/18 06:17:05;;;;;;;2.30;1.33;;;30.60;66.80;30.40;100541;;;;580887;244;23064;-81
2023/07/18 06:19:33;;;;;;;5.62;1.52;;;30.80;64.80;30.80;100544;;;;580580;244;23098;-80
2023/07/18 06:22:02;;;;;;;2.37;1.80;;;31.10;65.50;32.40;100555;;;;580892;241;23040;-82
2023/07/18 06:24:29;;;;;;;6.25;1.65;;;32.40;63.10;32.70;100549;;;;580385;244;23059;-83
2023/07/18 06:26:57;;;;;;;2.53;1.40;;;33.10;61.30;32.60;100555;;;;580420;244;23047;-83
2023/07/18 06:29:26;;;;;;;3.40;1.40;;;33.00;60.60;33.70;100559;;;;580670;241;23055;-83
2023/07/18 06:32:00;;;;;;;3.87;1.58;;;33.90;58.90;34.50;100561;;;;580209;245;23049;-83
2023/07/18 06:34:28;;;;;;;4.30;1.58;;;34.80;56.80;35.30;100562;;;;580374;245;23078;-81
2023/07/18 06:36:53;;;;;;;3.37;1.70;;;35.50;56.00;36.00;100552;;;;580583;245;24043;-81
2023/07/18 06:39:20;;;;;;;4.00;1.90;;;36.30;55.20;37.20;100555;;;;580835;241;23041;-82
2023/07/18 06:41:48;;;;;;;2.40;1.30;;;37.30;53.10;37.70;100555;;;;580346;245;23047;-82
2023/07/18 06:44:16;;;;;;;5.93;1.45;;;37.80;51.60;37.80;100559;;;;580181;241;23080;-80
2023/07/18 06:46:45;;;;;;;5.10;1.58;;;38.20;51.10;38.70;100564;;;;580185;245;23060;-82
2023/07/18 06:49:13;;;;;;;2.25;1.37;;;38.90;50.20;38.50;100574;;;;579996;245;23116;-81
2023/07/18 06:51:40;;;;;;;3.30;1.40;;;39.10;48.80;37.50;100565;;;;580441;245;24098;-81
2023/07/18 06:54:08;;;;;;;4.10;1.02;;;38.20;49.40;37.60;100565;;;;580244;241;23112;-82
2023/07/18 06:56:38;;;;;;;2.58;1.55;;;38.20;50.50;36.80;100567;;;;580119;245;23068;-81
2023/07/18 06:59:04;;;;;;;3.28;1.50;;;37.40;50.60;35.60;100563;;;;579877;240;24143;-81
2023/07/18 07:01:33;;;;;;;4.70;1.73;;;36.30;51.30;34.30;100563;;;;575342;242;23083;-81
2023/07/18 07:04:00;;;;;;;4.40;1.20;;;35.00;52.60;33.50;100560;;;;580288;245;23136;-80
2023/07/18 07:06:28;;;;;;;3.87;1.62;;;34.00;54.60;33.20;100562;;;;575128;241;34976;-81
2023/07/18 07:08:56;;;;;;;4.07;1.80;;;34.00;55.50;33.90;100561;;;;580201;245;23093;-81
2023/07/18 07:11:27;;;;;;;3.97;1.55;;;33.90;55.40;34.20;100562;;;;580220;245;23050;-81
2023/07/18 07:13:52;;;;;;;1.95;1.30;;;34.30;54.70;33.80;100568;;;;579712;240;23116;-83
2023/07/18 07:16:20;;;;;;;2.22;1.73;;;34.00;56.20;33.80;100577;;;;579963;245;23062;-81
2023/07/18 07:18:50;;;;;;;3.05;1.55;;;34.00;55.50;33.60;100576;;;;580142;241;23055;-79
2023/07/18 07:21:16;;;;;;;3.12;1.58;;;33.80;55.80;33.20;100577;;;;580069;245;23140;-79
2023/07/18 07:23:44;;;;;;;3.37;1.65;;;33.50;56.30;32.40;100579;;;;579900;245;23070;-80
2023/07/18 07:26:12;;;;;;;2.25;1.27;;;32.80;57.20;33.00;100593;;;;581562;244;23039;-81
2023/07/18 07:28:40;;;;;;;9.05;1.80;;;33.00;57.70;33.00;100594;;;;580956;244;23163;-79
2023/07/18 07:31:07;;;;;;;3.67;1.50;;;33.30;56.30;32.10;100600;;;;575575;240;34978;-80
2023/07/18 07:33:37;;;;;;;4.00;1.70;;;31.80;57.90;31.10;100612;;;;581147;241;23103;-82
2023/07/18 07:36:05;;;;;;;5.57;1.40;;;30.50;58.60;29.60;100600;;;;581029;241;23037;-81
2023/07/18 07:38:33;;;;;;;4.20;1.37;;;30.50;61.10;30.30;100594;;;;581140;244;23099;-80
2023/07/18 07:41:01;;;;;;;1.95;1.20;;;30.40;60.90;32.60;100602;;;;581218;244;23039;-81
2023/07/18 07:43:29;;;;;;;3.25;1.52;;;32.30;59.70;34.60;100592;;;;581083;245;23068;-80
2023/07/18 07:46:00;;;;;;;1.73;1.15;;;34.30;56.50;35.90;100599;;;;580166;241;23071;-80
2023/07/18 07:48:28;;;;;;;3.75;1.45;;;35.90;53.30;37.20;100589;;;;580056;245;23072;-81
2023/07/18 07:50:56;;;;;;;6.50;1.83;;;37.00;51.60;38.60;100598;;;;579947;245;23057;-81
2023/07/18 07:53:21;;;;;;;2.83;1.45;;;38.50;49.80;39.70;100596;;;;575452;243;24068;-80
2023/07/18 07:55:49;;;;;;;2.65;1.80;;;39.60;47.90;40.30;100603;;;;580147;245;23027;-81
2023/07/18 07:58:17;;;;;;;3.70;1.40;;;40.50;46.30;40.70;100599;;;;589281;239;24133;-81
2023/07/18 08:00:45;;;;;;;2.87;1.45;;;40.90;44.90;40.70;100594;;;;579966;245;23044;-81
2023/07/18 08:03:13;;;;;;;2.80;1.87;;;41.30;44.10;41.00;100599;;;;580276;245;23047;-81
2023/07/18 08:05:42;;;;;;;2.75;1.10;;;40.60;43.70;39.80;100599;;;;580362;245;23041;-82
2023/07/18 08:08:10;;;;;;;6.28;3.00;;;40.60;43.70;36.80;100602;;;;589324;242;23045;-80
2023/07/18 08:10:38;;;;;;;5.28;1.87;;;38.40;44.90;34.60;100595;;;;580311;241;23066;-80
2023/07/18 08:13:06;;;;;;;1.98;1.30;;;36.10;47.60;33.10;100593;;;;580609;240;23052;-82
2023/07/18 08:15:34;;;;;;;3.15;1.40;;;34.30;50.30;33.60;100594;;;;580116;245;23114;-79
2023/07/18 08:18:02;;;;;;;3.83;1.58;;;33.80;53.00;34.50;100605;;;;579884;245;23109;-81
2023/07/18 08:20:32;;;;;;;5.12;1.73;;;34.30;52.10;33.90;100611;;;;579882;245;23101;-80
2023/07/18 08:22:59;;;;;;;3.97;1.15;;;33.20;53.20;32.40;100615;;;;579811;245;23108;-79
2023/07/18 08:25:27;;;;;;;3.58;1.55;;;33.20;53.20;31.10;100621;;;;579965;245;23045;-80
2023/07/18 08:27:55;;;;;;;1.83;1.40;;;32.00;55.10;29.90;100624;;;;579905;245;23131;-79
2023/07/18 08:30:23;;;;;;;2.78;1.30;;;30.80;57.20;28.90;100627;;;;579783;241;23089;-79
2023/07/18 08:33:04;;;;;;;6.50;1.37;;;29.70;61.50;27.50;100628;;;;579920;245;23167;-79
2023/07/18 08:35:32;;;;;;;3.45;1.67;;;28.30;64.30;26.30;100625;;;;579571;244;23255;-79
2023/07/18 08:38:00;;;;;;;4.78;1.60;;;27.20;69.10;25.80;100629;;;;582609;239;34930;-80
2023/07/18 08:40:28;;;;;;;4.12;1.37;;;26.40;71.50;26.20;100630;;;;589683;239;24085;-80
2023/07/18 08:42:59;;;;;;;1.67;1.25;;;26.30;73.00;27.40;100624;;;;589632;239;23078;-78
2023/07/18 08:45:27;;;;;;;4.72;1.60;;;27.50;71.90;27.70;100620;;;;599121;239;23036;-78
2023/07/18 08:47:56;;;;;;;2.72;1.17;;;27.80;69.20;29.60;100626;;;;562528;251;23112;-79
2023/07/18 08:50:23;;;;;;;3.22;1.35;;;29.40;68.20;31.00;100631;;;;599247;239;23044;-78
2023/07/18 08:52:51;;;;;;;3.83;1.60;;;31.10;63.00;30.30;100619;;;;587359;239;23052;-80
2023/07/18 08:55:21;;;;;;;4.12;1.50;;;30.90;62.50;28.70;100618;;;;599013;239;23077;-79
2023/07/18 08:57:47;;;;;;;5.72;2.12;;;28.20;76.10;27.10;100615;;;;588491;237;23063;-80
2023/07/18 09:00:20;;;;;;;1.42;1.25;;;26.70;80.30;25.60;100610;;;;604646;237;24059;-81
2023/07/18 09:02:48;;;;;;;6.37;1.47;;;25.40;78.70;24.40;100607;;;;570556;248;24111;-80
2023/07/18 09:05:36;;;;;;;2.57;1.23;;;25.30;78.70;23.90;100600;;;;604686;235;23077;-79
2023/07/18 09:08:05;;;;;;;3.50;1.40;;;26.00;83.50;26.20;100599;;;;594880;237;23076;-79
2023/07/18 09:10:34;;;;;;;2.53;1.37;;;28.80;75.00;29.10;100601;;;;589855;242;24078;-78
2023/07/18 09:13:05;;;;;;;2.67;1.23;;;28.80;74.90;31.90;100602;;;;604215;237;23042;-80
2023/07/18 09:15:33;;;;;;;4.07;1.30;;;31.60;68.70;34.50;100589;;;;592324;238;23041;-80
2023/07/18 09:18:01;;;;;;;3.72;1.33;;;34.50;62.10;36.40;100594;;;;570257;241;23078;-81
2023/07/18 09:20:29;;;;;;;3.08;1.52;;;36.80;57.80;37.60;100594;;;;594458;238;24132;-81
2023/07/18 09:23:00;;;;;;;2.80;1.48;;;39.80;52.60;39.30;100596;;;;599099;238;23062;-81
2023/07/18 09:25:28;;;;;;;3.15;1.80;;;39.70;52.50;40.80;100593;;;;591804;238;23173;-81
2023/07/18 09:27:53;;;;;;;3.25;1.70;;;41.50;49.30;39.40;100588;;;;592461;238;23038;-81
2023/07/18 09:30:21;;;;;;;4.62;1.87;;;40.90;48.70;37.00;100597;;;;593757;238;23094;-80
2023/07/18 09:32:53;;;;;;;2.87;1.50;;;39.00;49.90;34.70;100593;;;;589696;238;23056;-81
2023/07/18 09:35:17;;;;;;;5.35;2.30;;;36.70;51.60;33.30;100577;;;;591515;238;23045;-80
2023/07/18 09:37:45;;;;;;;5.22;1.70;;;35.00;54.90;33.10;100580;;;;570423;247;23130;-80
2023/07/18 09:40:15;;;;;;;4.57;1.98;;;34.20;57.80;32.30;100577;;;;604567;238;23101;-81
2023/07/18 09:42:50;;;;;;;6.28;1.80;;;33.40;58.60;31.60;100578;;;;595717;235;23037;-80
2023/07/18 09:45:14;;;;;;;3.17;1.77;;;33.20;60.50;32.90;100583;;;;569122;248;23104;-81
2023/07/18 09:47:49;;;;;;;2.53;1.60;;;33.10;60.30;35.40;100578;;;;605476;236;23046;-81
2023/07/18 09:50:14;;;;;;;1.65;1.50;;;35.50;57.40;36.70;100586;;;;604597;237;23073;-80
2023/07/18 09:52:42;;;;;;;2.53;1.27;;;37.30;53.20;38.40;100580;;;;570804;247;23120;-81
2023/07/18 09:55:13;;;;;;;5.97;2.03;;;38.80;51.30;40.20;100564;;;;604704;236;23108;-81
2023/07/18 09:57:39;;;;;;;2.35;1.60;;;42.50;47.50;41.70;100571;;;;570589;248;23096;-81
2023/07/18 10:00:09;;;;;;;10.02;2.17;;;42.40;47.40;43.20;100569;;;;603896;237;23090;-80
2023/07/18 10:02:35;;;;;;;7.93;1.92;;;44.20;45.80;44.90;100566;;;;595269;237;23094;-81
2023/07/18 10:05:09;;;;;;;7.10;1.73;;;45.90;42.90;46.40;100574;;;;595733;237;23087;-81
2023/07/18 10:07:34;;;;;;;7.22;1.83;;;47.50;40.50;47.40;100570;;;;604551;237;23066;-82
2023/07/18 10:10:05;;;;;;;2.95;1.70;;;48.60;38.80;48.00;100573;;;;574764;248;24306;-81
2023/07/18 10:12:33;;;;;;;2.35;1.30;;;49.50;37.20;47.00;100583;;;;597603;237;23149;-81
2023/07/18 10:15:04;;;;;;;4.93;1.50;;;49.00;35.40;46.40;100575;;;;594970;237;23045;-81
2023/07/18 10:17:34;;;;;;;2.70;1.73;;;48.40;36.30;46.70;100566;;;;604399;235;24134;-81
2023/07/18 10:20:11;;;;;;;3.37;1.58;;;48.30;36.20;46.80;100575;;;;568077;248;23105;-79
2023/07/18 10:22:39;;;;;;;1.75;1.05;;;48.40;35.00;46.60;100576;;;;592452;237;23124;-83
2023/07/18 10:25:10;;;;;;;2.28;1.42;;;48.30;35.50;45.80;100574;;;;567598;248;23141;-82
2023/07/18 10:27:40;;;;;;;1.85;1.60;;;47.70;35.60;44.70;100588;;;;591858;238;23442;-81
2023/07/18 10:32:53;;;;;;;1.65;1.50;;;45.40;36.30;42.70;100593;;;;603036;238;23074;-81
2023/07/18 10:35:27;;;;;;;2.58;1.50;;;44.30;37.80;41.40;100592;;;;593026;238;23044;-81
2023/07/18 10:37:54;;;;;;;2.90;1.30;;;43.10;37.80;40.60;100595;;;;569074;248;23090;-84
2023/07/18 10:40:40;;;;;;;1.77;1.30;;;42.10;38.90;39.70;100608;;;;595112;237;24093;-81
2023/07/18 10:43:10;;;;;;;2.28;1.48;;;41.30;39.80;38.10;100592;;;;594925;235;23088;-80
2023/07/18 10:45:42;;;;;;;7.22;1.48;;;39.70;40.30;37.30;100588;;;;592938;238;23025;-81
2023/07/18 10:48:15;;;;;;;4.75;1.50;;;38.50;42.10;36.20;100590;;;;572331;248;23127;-81
2023/07/18 10:50:47;;;;;;;2.28;1.25;;;37.20;43.20;34.70;100580;;;;604001;238;23056;-81
2023/07/18 10:53:17;;;;;;;2.37;1.50;;;35.70;44.90;33.40;100586;;;;592337;238;23061;-81
2023/07/18 10:55:46;;;;;;;5.30;1.30;;;33.00;48.70;32.30;100588;;;;599442;238;23045;-81
2023/07/18 10:58:18;;;;;;;5.20;1.50;;;32.00;52.10;31.40;100595;;;;569729;248;24114;-80
2023/07/18 11:00:48;;;;;;;1.83;1.23;;;31.90;51.40;30.60;100606;;;;595932;237;23132;-82
2023/07/18 11:03:22;;;;;;;1.58;1.10;;;31.10;52.70;29.40;100597;;;;569176;248;24153;-80
2023/07/18 11:06:04;;;;;;;;;;;;;;;;;;;;;
2023/07/18 11:08:26;;;;;;;1.25;1.12;;;29.20;57.60;28.10;100595;;;;573243;237;24090;-78
2023/07/18 11:11:00;;;;;;;4.18;1.15;;;28.60;58.60;27.60;100583;;;;604688;237;23104;-80
2023/07/18 11:13:28;;;;;;;2.10;0.98;;;27.90;60.60;27.40;100587;;;;594971;237;24051;-80
2023/07/18 11:16:08;;;;;;;3.47;1.20;;;27.70;61.00;27.10;100575;;;;568594;248;24072;-81
2023/07/18 11:18:39;;;;;;;3.00;1.50;;;27.50;61.00;26.80;100570;;;;594955;237;23085;-81